Sepulveda, California
Current Conditions -  °F | °C
As of 2:53 PM on Tuesday 25 Nov 2014 (Local Time) from KBUR Reporting Station
Clear Clear  
Wind Chill: 26°   Ceiling: Unl
Heat Index: 26°   Visibility: 10mi
Dew Point: -9°   Wind: 8mph
Humidity: 9%   Direction: 180°S
Pressure: 30.26"   Gusts: NA
Location:  34.1618°N, 118.281°W
Report Text: KBUR 252253Z 18007KT 10SM CLR 26/M09 A3026 RMK AO2 SLP236 T02561094
Loading
Personal Weather Stations






























Interactive Weather Map New forecast layout! Learn more

10-Day Weather Forecast

Advertisements
Track Severe Weather on mobile